Time;durP1;ratioP1;P1;durP2;ratioP2;P2;SDS_P1;SDS_P2;PMS_P1;PMS_P2;Temp;Humidity;BMP_temperature;BMP_pressure;BME280_temperature;BME280_humidity;BME280_pressure;Samples;Min_cycle;Max_cycle;Signal;HPM_P1;HPM_P2
2021/05/03 00:00:09;;;;;;;14.93;4.47;;;;;;;23.84;45.64;98787.44;5035591;28;20021;-76
2021/05/03 00:02:35;;;;;;;16.30;4.95;;;;;;;24.31;45.67;98864.97;5017912;28;20056;-77
2021/05/03 00:05:02;;;;;;;18.63;4.93;;;;;;;24.30;45.87;98874.16;5035493;28;20064;-77
2021/05/03 00:07:27;;;;;;;15.23;4.55;;;;;;;24.31;45.86;98873.88;5035149;28;20033;-76
2021/05/03 00:09:53;;;;;;;12.73;4.50;;;;;;;24.32;45.78;98871.97;5035319;28;20424;-75
2021/05/03 00:12:19;;;;;;;14.32;4.50;;;;;;;24.08;45.73;98836.81;5035052;28;20037;-77
2021/05/03 00:14:44;;;;;;;16.15;4.80;;;;;;;24.16;45.70;98854.28;5036094;28;20021;-76
2021/05/03 00:17:10;;;;;;;11.27;4.40;;;;;;;24.23;45.90;98871.75;5046690;28;20032;-77
2021/05/03 00:19:36;;;;;;;14.93;5.43;;;;;;;24.31;45.87;98868.47;5035129;28;20037;-76
2021/05/03 00:22:02;;;;;;;14.45;4.90;;;;;;;24.08;45.86;98834.13;5035047;28;20087;-77
2021/05/03 00:24:27;;;;;;;16.27;4.88;;;;;;;24.04;45.47;98835.78;5034956;28;20029;-76
2021/05/03 00:26:53;;;;;;;15.48;4.75;;;;;;;24.30;45.47;98874.94;5034661;28;20511;-76
2021/05/03 00:29:18;;;;;;;13.98;4.78;;;;;;;24.06;45.63;98839.81;5034825;28;20040;-77
2021/05/03 00:31:43;;;;;;;15.63;4.90;;;;;;;24.16;45.39;98859.69;5035022;28;20033;-77
2021/05/03 00:34:10;;;;;;;17.45;4.50;;;;;;;24.32;45.68;98878.19;5035091;28;20107;-77
2021/05/03 00:36:35;;;;;;;17.73;5.10;;;;;;;24.18;45.70;98846.72;5034866;28;20116;-77
2021/05/03 00:39:01;;;;;;;15.10;5.32;;;;;;;24.18;45.71;98850.22;5017379;28;20104;-76
2021/05/03 00:41:26;;;;;;;17.73;5.03;;;;;;;24.27;46.17;98878.22;5033868;28;20029;-77
2021/05/03 00:43:52;;;;;;;15.23;5.55;;;;;;;24.27;46.05;98877.41;5034705;28;20082;-76
2021/05/03 00:46:20;;;;;;;15.65;4.65;;;;;;;24.27;46.10;98872.03;5034620;28;20025;-77
2021/05/03 00:48:46;;;;;;;15.63;5.18;;;;;;;23.84;46.58;98804.41;5034687;28;20021;-76
2021/05/03 00:51:12;;;;;;;13.93;5.07;;;;;;;24.24;46.71;98862.56;5034513;28;20036;-77
2021/05/03 00:53:38;;;;;;;16.52;4.82;;;;;;;24.08;46.45;98836.81;5017126;28;20018;-77
2021/05/03 00:56:03;;;;;;;18.55;5.97;;;;;;;24.11;46.64;98848.94;5034784;28;20017;-76
2021/05/03 00:58:29;;;;;;;20.42;5.97;;;;;;;23.74;46.97;98793.69;5034315;28;20100;-76
2021/05/03 01:00:55;;;;;;;17.15;5.72;;;;;;;24.26;46.81;98862.28;5017010;28;20021;-77
2021/05/03 01:03:21;;;;;;;17.90;5.20;;;;;;;24.03;46.51;98807.22;5016994;28;20056;-76
2021/05/03 01:05:46;;;;;;;25.52;5.53;;;;;;;23.79;46.31;98784.78;5017038;28;20037;-77
2021/05/03 01:08:12;;;;;;;16.23;5.22;;;;;;;24.32;46.09;98880.06;5034374;28;20026;-77
2021/05/03 01:10:37;;;;;;;20.80;5.03;;;;;;;24.31;45.98;98879.25;5034562;28;20021;-78
2021/05/03 01:13:02;;;;;;;15.98;5.20;;;;;;;24.33;45.60;98878.97;5034488;28;20104;-77
2021/05/03 01:15:28;;;;;;;15.48;4.80;;;;;;;24.13;45.51;98844.06;5034376;28;20347;-76
2021/05/03 01:17:55;;;;;;;15.70;4.70;;;;;;;24.36;44.80;98889.19;5034402;28;20478;-75
2021/05/03 01:20:22;;;;;;;16.17;4.90;;;;;;;23.93;44.64;98818.88;5034339;28;20032;-77
2021/05/03 01:22:47;;;;;;;15.18;4.57;;;;;;;23.80;43.61;98806.06;5034446;28;20440;-77
2021/05/03 01:25:13;;;;;;;17.80;4.80;;;;;;;24.36;42.65;98884.59;5034369;28;20026;-77
2021/05/03 01:27:38;;;;;;;18.17;4.50;;;;;;;24.06;42.51;98834.41;5034023;28;20041;-76
2021/05/03 01:30:06;;;;;;;14.98;4.95;;;;;;;24.39;42.46;98894.84;5034250;28;20500;-76
2021/05/03 01:32:32;;;;;;;11.52;4.20;;;;;;;24.36;42.01;98887.31;5016584;28;20030;-75
2021/05/03 01:34:57;;;;;;;16.50;4.25;;;;;;;24.41;41.41;98891.84;5034322;28;20025;-77
2021/05/03 01:37:23;;;;;;;16.35;4.68;;;;;;;24.32;40.78;98898.94;5034158;28;20390;-77
2021/05/03 01:39:49;;;;;;;13.85;4.57;;;;;;;24.13;40.06;98855.66;5016770;28;20124;-77
2021/05/03 01:42:15;;;;;;;13.93;4.38;;;;;;;24.28;39.58;98893.31;5016562;28;20074;-77
2021/05/03 01:44:41;;;;;;;16.83;4.50;;;;;;;24.27;39.39;98894.41;5034197;28;20022;-76
2021/05/03 01:47:07;;;;;;;12.68;4.30;;;;;;;24.24;39.30;98889.53;5034119;28;20037;-75
2021/05/03 01:49:33;;;;;;;10.43;3.83;;;;;;;24.27;38.88;98880.13;5034031;28;20451;-75
2021/05/03 01:51:59;;;;;;;14.50;4.65;;;;;;;24.26;38.46;98883.88;5016861;28;20033;-77
2021/05/03 01:54:25;;;;;;;21.60;5.03;;;;;;;23.87;37.96;98817.31;5037744;28;20113;-76
2021/05/03 01:56:50;;;;;;;14.18;3.65;;;;;;;23.95;38.50;98818.59;5020910;28;20463;-77
2021/05/03 01:59:16;;;;;;;12.27;3.95;;;;;;;23.64;37.67;98778.41;5039617;28;20018;-77
2021/05/03 02:01:42;;;;;;;12.07;4.38;;;;;;;24.19;37.42;98867.22;5021901;28;20364;-78
2021/05/03 02:04:08;;;;;;;13.70;3.90;;;;;;;24.23;36.60;98889.81;5037864;28;20029;-74
2021/05/03 02:06:37;;;;;;;11.40;3.58;;;;;;;24.06;35.74;98860.56;5037448;28;20032;-77
2021/05/03 02:09:09;;;;;;;14.32;3.60;;;;;;;24.23;35.23;98887.94;5037681;28;20056;-76
2021/05/03 02:11:36;;;;;;;11.30;3.42;;;;;;;23.91;35.29;98845.31;5037425;28;20025;-77
2021/05/03 02:14:02;;;;;;;17.38;4.18;;;;;;;23.89;35.43;98835.91;5037510;28;20450;-77
2021/05/03 02:16:27;;;;;;;13.95;4.22;;;;;;;24.16;35.74;98900.16;5037311;28;20493;-77
2021/05/03 02:18:53;;;;;;;12.60;3.53;;;;;;;24.12;35.02;98880.22;5019852;28;20049;-77
2021/05/03 02:21:18;;;;;;;11.70;3.00;;;;;;;24.11;34.93;98886.69;5037270;28;20025;-75
2021/05/03 02:23:44;;;;;;;13.20;3.78;;;;;;;23.70;33.32;98841.94;5019745;28;20044;-76
2021/05/03 02:26:09;;;;;;;12.68;3.13;;;;;;;23.97;32.61;98883.84;5019521;28;20037;-77
2021/05/03 02:28:34;;;;;;;11.52;3.17;;;;;;;24.08;32.02;98899.66;5037074;28;20033;-76
2021/05/03 02:31:00;;;;;;;18.25;3.38;;;;;;;23.60;31.43;98827.75;5019592;28;20026;-76
2021/05/03 02:33:25;;;;;;;14.55;3.58;;;;;;;23.93;30.89;98877.41;5037030;28;20408;-77
2021/05/03 02:35:51;;;;;;;13.43;3.20;;;;;;;23.91;30.49;98884.97;5037075;28;20098;-76
2021/05/03 02:38:17;;;;;;;15.10;3.83;;;;;;;23.99;30.53;98892.44;5036933;28;20036;-74
2021/05/03 02:40:43;;;;;;;17.80;3.85;;;;;;;23.92;30.19;98895.47;5036964;28;20069;-77
2021/05/03 02:43:08;;;;;;;12.80;3.20;;;;;;;23.79;30.08;98873.72;5037080;28;20029;-78
2021/05/03 02:45:35;;;;;;;12.50;3.28;;;;;;;23.51;29.79;98827.50;5036764;28;20026;-74
2021/05/03 02:48:01;;;;;;;14.85;3.15;;;;;;;24.06;29.80;98914.50;5036790;28;20029;-76
2021/05/03 02:50:27;;;;;;;15.45;3.70;;;;;;;24.02;29.24;98926.94;5036707;28;20025;-78
2021/05/03 02:52:53;;;;;;;14.82;3.03;;;;;;;24.05;29.17;98934.47;5036814;28;20047;-81
2021/05/03 02:55:20;;;;;;;12.18;2.88;;;;;;;24.06;28.89;98938.78;5019058;28;20025;-77
2021/05/03 02:57:47;;;;;;;13.73;3.83;;;;;;;23.93;28.69;98921.34;5036688;28;20022;-78
2021/05/03 03:00:34;;;;;;;12.15;2.88;;;;;;;23.99;28.51;98939.09;5036657;28;20087;-74
2021/05/03 03:03:00;;;;;;;8.77;3.00;;;;;;;23.94;28.50;98949.13;5036573;28;20416;-80
2021/05/03 03:05:26;;;;;;;9.65;3.08;;;;;;;23.97;28.33;98946.66;5035633;28;20032;-77
2021/05/03 03:07:52;;;;;;;12.63;2.83;;;;;;;23.94;28.46;98947.22;5036396;28;20091;-77
2021/05/03 03:10:20;;;;;;;14.93;2.80;;;;;;;23.56;28.38;98897.56;5036353;28;20030;-76
2021/05/03 03:12:46;;;;;;;10.57;2.88;;;;;;;23.86;28.27;98953.22;5036401;28;20482;-77
2021/05/03 03:15:14;;;;;;;9.25;2.53;;;;;;;23.86;28.09;98947.81;5036312;28;20029;-78
2021/05/03 03:17:39;;;;;;;10.20;2.67;;;;;;;23.74;27.99;98939.25;5036325;28;20025;-79
2021/05/03 03:20:07;;;;;;;11.82;2.80;;;;;;;23.45;27.66;98910.25;5018723;28;20029;-78
2021/05/03 03:22:33;;;;;;;12.55;3.03;;;;;;;23.86;27.56;98971.28;5036601;28;20082;-78
2021/05/03 03:24:59;;;;;;;8.05;2.38;;;;;;;23.75;27.40;98965.09;5037626;28;20033;-76
2021/05/03 03:27:24;;;;;;;8.65;2.53;;;;;;;23.59;27.33;98947.41;5037924;28;20371;-76
2021/05/03 03:29:50;;;;;;;11.88;2.88;;;;;;;23.92;27.10;98995.22;5036618;28;20036;-76
2021/05/03 03:32:15;;;;;;;18.23;3.60;;;;;;;23.86;26.48;99003.63;5035928;28;20026;-78
2021/05/03 03:34:40;;;;;;;22.98;3.10;;;;;;;23.73;26.14;98980.75;5036003;28;20028;-77
2021/05/03 03:37:06;;;;;;;15.68;3.17;;;;;;;23.86;26.22;99003.63;5035900;28;20018;-75
2021/05/03 03:39:31;;;;;;;22.23;3.25;;;;;;;23.73;25.75;98999.63;5021121;28;20036;-77
2021/05/03 03:41:57;;;;;;;9.40;2.55;;;;;;;23.32;25.70;98937.81;5045225;28;20037;-78
2021/05/03 03:44:22;;;;;;;13.75;2.60;;;;;;;23.42;25.43;98969.28;5035569;28;20025;-75
2021/05/03 03:46:47;;;;;;;13.05;2.67;;;;;;;23.76;25.52;99037.63;5035636;28;20317;-78
2021/05/03 03:49:13;;;;;;;9.05;2.17;;;;;;;23.80;24.86;99045.19;5035770;28;20025;-78
2021/05/03 03:51:38;;;;;;;12.52;2.22;;;;;;;23.38;24.77;98995.16;5018024;28;20511;-77
2021/05/03 03:54:05;;;;;;;15.88;2.92;;;;;;;23.72;24.62;99041.13;5035623;28;20033;-77
2021/05/03 03:56:30;;;;;;;13.80;3.03;;;;;;;23.64;24.79;99036.31;5035413;28;20021;-77
2021/05/03 03:58:55;;;;;;;18.73;2.75;;;;;;;23.61;24.88;99015.31;5018009;28;20095;-76
2021/05/03 04:01:21;;;;;;;14.18;2.63;;;;;;;23.35;25.16;99001.09;5035282;28;20439;-77
2021/05/03 04:03:49;;;;;;;16.73;2.75;;;;;;;23.50;25.52;99036.06;5035369;28;20037;-77
2021/05/03 04:08:54;;;;;;;16.00;3.53;;;;;;;23.02;25.05;98980.97;5035282;28;20052;-77
2021/05/03 04:25:30;;;;;;;9.32;2.22;;;;;;;23.70;24.13;99065.69;5035382;28;20395;-78
2021/05/03 04:27:56;;;;;;;12.05;2.17;;;;;;;23.23;23.90;99008.69;5017264;28;20049;-77
2021/05/03 04:30:21;;;;;;;8.02;2.22;;;;;;;23.53;23.99;99065.16;5034863;28;20028;-75
2021/05/03 04:32:47;;;;;;;6.30;2.00;;;;;;;23.68;23.95;99077.81;5017432;28;20053;-75
2021/05/03 04:35:12;;;;;;;7.13;2.45;;;;;;;23.73;23.67;99073.22;5034861;28;20029;-78
2021/05/03 04:37:37;;;;;;;7.82;2.40;;;;;;;23.72;24.01;99068.91;5034743;28;20379;-77
2021/05/03 04:40:04;;;;;;;11.10;2.30;;;;;;;23.66;23.93;99055.72;5034838;28;20443;-77
2021/05/03 04:42:29;;;;;;;10.02;2.80;;;;;;;23.82;24.10;99073.47;5034654;28;20052;-77
2021/05/03 04:44:55;;;;;;;11.95;2.92;;;;;;;23.82;24.45;99092.34;5034971;28;20125;-77
2021/05/03 04:47:20;;;;;;;9.90;2.53;;;;;;;23.87;24.69;99105.81;5034726;28;20029;-76
2021/05/03 04:49:46;;;;;;;7.70;2.33;;;;;;;23.48;25.28;99051.72;5034583;28;20025;-75
2021/05/03 04:52:12;;;;;;;11.15;2.45;;;;;;;23.66;25.45;99072.69;5017170;28;20025;-77
2021/05/03 04:54:37;;;;;;;7.28;2.63;;;;;;;23.83;25.67;99125.50;5034555;28;20037;-77
2021/05/03 04:57:03;;;;;;;11.20;2.40;;;;;;;23.81;26.72;99128.47;5017108;28;20087;-77
2021/05/03 04:59:28;;;;;;;9.60;2.35;;;;;;;23.73;27.35;99151.38;5034598;28;20041;-78
2021/05/03 05:01:53;;;;;;;9.63;2.85;;;;;;;23.54;28.27;99141.44;5034611;28;20432;-78
2021/05/03 05:04:19;;;;;;;14.63;3.25;;;;;;;23.43;29.13;99127.97;5016853;28;20124;-75
2021/05/03 05:06:44;;;;;;;9.10;2.78;;;;;;;23.44;29.64;99171.88;5016974;28;20035;-77
2021/05/03 05:09:10;;;;;;;10.00;3.05;;;;;;;23.37;29.78;99161.41;5034469;28;20029;-78
2021/05/03 05:11:35;;;;;;;10.80;2.97;;;;;;;23.27;29.23;99161.41;5034430;28;20025;-77
2021/05/03 05:14:01;;;;;;;15.15;3.33;;;;;;;23.24;29.09;99163.81;5034467;28;20022;-76
2021/05/03 05:16:27;;;;;;;10.32;2.72;;;;;;;23.33;28.61;99171.09;5034389;28;20033;-76
2021/05/03 05:18:53;;;;;;;7.97;3.00;;;;;;;23.42;28.45;99169.47;5034349;28;20025;-77
2021/05/03 05:21:18;;;;;;;8.70;2.60;;;;;;;23.50;28.89;99172.69;5034753;28;20359;-77
2021/05/03 05:23:44;;;;;;;10.75;2.90;;;;;;;23.47;29.30;99187.53;5034718;28;20029;-76
2021/05/03 05:26:10;;;;;;;11.25;3.08;;;;;;;23.28;29.74;99164.91;5034172;28;20461;-76
2021/05/03 05:28:36;;;;;;;13.60;3.67;;;;;;;23.47;29.68;99187.53;5037270;28;20028;-77
2021/05/03 05:31:02;;;;;;;27.17;2.83;;;;;;;23.54;29.28;99198.81;5038383;28;20033;-77
2021/05/03 05:33:27;;;;;;;12.55;3.03;;;;;;;23.51;29.08;99199.38;5038283;28;20032;-77
2021/05/03 05:35:53;;;;;;;13.98;2.85;;;;;;;23.40;28.96;99185.09;5038052;28;20431;-77
2021/05/03 05:38:18;;;;;;;10.45;2.53;;;;;;;23.43;28.75;99195.34;5020541;28;20108;-75
2021/05/03 05:40:44;;;;;;;8.35;2.47;;;;;;;23.42;28.79;99182.13;5038131;28;20021;-78
2021/05/03 05:43:10;;;;;;;9.07;2.40;;;;;;;23.25;28.57;99163.56;5038174;28;20040;-77
2021/05/03 05:45:36;;;;;;;8.00;2.92;;;;;;;23.55;28.46;99191.59;5037970;28;20352;-77
2021/05/03 05:48:02;;;;;;;8.60;2.60;;;;;;;23.52;28.56;99198.28;5020321;28;20427;-77
2021/05/03 05:50:27;;;;;;;7.18;1.98;;;;;;;23.58;28.33;99196.44;5037726;28;20033;-77
2021/05/03 05:52:54;;;;;;;12.85;2.58;;;;;;;23.60;28.37;99213.13;5037943;28;20028;-76
2021/05/03 05:55:20;;;;;;;9.90;2.50;;;;;;;23.42;28.22;99191.03;5037733;28;20056;-77
2021/05/03 05:57:45;;;;;;;11.57;2.67;;;;;;;22.93;28.34;99104.56;5037793;28;20021;-77
2021/05/03 06:00:11;;;;;;;6.88;2.20;;;;;;;23.56;28.31;99225.53;5020378;28;20108;-78
2021/05/03 06:02:37;;;;;;;8.70;2.28;;;;;;;23.37;28.27;99204.50;5037562;28;20280;-78
2021/05/03 06:05:02;;;;;;;13.32;3.05;;;;;;;23.41;28.29;99194.81;5037652;28;20025;-78
2021/05/03 06:07:28;;;;;;;9.93;2.58;;;;;;;23.60;28.28;99203.16;5019800;28;20021;-76
2021/05/03 06:09:54;;;;;;;9.40;2.42;;;;;;;23.59;28.01;99200.75;5020079;28;20029;-77
2021/05/03 06:12:19;;;;;;;6.53;2.25;;;;;;;23.40;27.59;99171.63;5037655;28;20040;-76
2021/05/03 06:14:44;;;;;;;8.07;2.25;;;;;;;23.10;27.71;99133.94;5037526;28;20033;-77
2021/05/03 06:17:10;;;;;;;10.35;3.22;;;;;;;23.43;27.64;99189.13;5037592;28;20035;-76
2021/05/03 06:19:36;;;;;;;17.90;2.95;;;;;;;23.39;27.46;99194.25;5037336;28;20414;-77
2021/05/03 06:22:01;;;;;;;18.73;2.58;;;;;;;23.03;27.59;99141.44;5019739;28;20021;-77
2021/05/03 06:24:27;;;;;;;7.60;2.30;;;;;;;23.22;27.65;99150.63;5037229;28;20056;-78
2021/05/03 06:26:52;;;;;;;9.20;2.38;;;;;;;23.60;27.70;99221.22;5037032;28;20046;-77
2021/05/03 06:29:18;;;;;;;10.80;2.13;;;;;;;23.24;27.65;99163.81;5037222;28;20109;-78
2021/05/03 06:31:46;;;;;;;8.57;2.28;;;;;;;23.51;27.69;99209.34;5037401;28;20029;-77
2021/05/03 06:34:11;;;;;;;6.30;1.50;;;;;;;23.52;27.56;99216.34;5037256;28;20025;-77
2021/05/03 06:36:37;;;;;;;15.68;2.30;;;;;;;23.20;27.38;99168.94;5019423;28;20032;-77
2021/05/03 06:39:03;;;;;;;4.32;1.98;;;;;;;23.21;27.11;99154.41;5035938;28;20025;-76
2021/05/03 06:41:28;;;;;;;8.30;2.30;;;;;;;23.22;27.08;99131.78;5036913;28;20025;-77
2021/05/03 06:43:53;;;;;;;13.20;2.53;;;;;;;23.68;26.80;99223.38;5036973;28;20029;-77
2021/05/03 06:46:19;;;;;;;8.75;1.80;;;;;;;23.67;26.95;99208.28;5036852;28;20112;-76
2021/05/03 06:48:44;;;;;;;10.63;2.15;;;;;;;23.95;27.16;99221.19;5019203;28;20060;-77
2021/05/03 06:51:09;;;;;;;14.85;2.47;;;;;;;23.95;26.64;99194.22;5036901;28;20108;-77
2021/05/03 06:53:35;;;;;;;10.70;2.17;;;;;;;23.64;26.64;99133.34;5036572;28;20105;-76
2021/05/03 06:56:00;;;;;;;12.57;2.58;;;;;;;24.19;26.19;99247.56;5036752;28;20420;-77
2021/05/03 06:58:26;;;;;;;16.75;2.80;;;;;;;23.90;26.37;99212.31;5036628;28;20313;-77
2021/05/03 07:00:51;;;;;;;11.40;2.03;;;;;;;24.18;26.27;99229.75;5036726;28;20022;-77
2021/05/03 07:03:17;;;;;;;11.85;2.67;;;;;;;24.03;26.12;99209.84;5049723;28;20446;-75
2021/05/03 07:05:42;;;;;;;13.95;2.97;;;;;;;24.26;26.03;99229.19;5020127;28;20083;-77
2021/05/03 07:08:11;;;;;;;16.58;2.30;;;;;;;24.32;25.66;99231.63;5036395;28;20072;-79
2021/05/03 07:10:44;;;;;;;16.08;2.25;;;;;;;24.34;25.57;99240.25;5036413;28;20373;-77
2021/05/03 07:13:10;;;;;;;15.20;2.63;;;;;;;24.37;25.62;99237.00;5036554;28;20029;-76
2021/05/03 07:15:35;;;;;;;10.38;2.83;;;;;;;24.54;25.22;99231.31;5036273;28;20032;-76
2021/05/03 07:18:01;;;;;;;17.00;2.25;;;;;;;24.67;25.43;99259.59;5018839;28;20343;-77
2021/05/03 07:20:26;;;;;;;19.65;3.17;;;;;;;24.21;24.92;99149.09;5018702;28;20036;-76
2021/05/03 07:22:52;;;;;;;19.92;3.42;;;;;;;24.55;25.35;99216.72;5036181;28;20029;-77
2021/05/03 07:25:18;;;;;;;10.68;2.55;;;;;;;24.75;25.70;99245.50;5035995;28;20039;-77
2021/05/03 07:27:43;;;;;;;10.45;2.22;;;;;;;24.93;25.34;99261.06;5035785;28;20049;-77
2021/05/03 07:30:11;;;;;;;12.55;2.13;;;;;;;24.80;25.45;99244.66;5036115;28;20025;-77
2021/05/03 07:32:37;;;;;;;19.30;3.22;;;;;;;24.85;25.38;99263.53;5036022;28;20111;-76
2021/05/03 07:35:05;;;;;;;7.60;2.10;;;;;;;23.86;25.37;99106.09;5036076;28;20083;-76
2021/05/03 07:37:31;;;;;;;11.63;2.17;;;;;;;24.93;25.35;99273.75;5035755;28;20332;-76
2021/05/03 07:39:56;;;;;;;8.23;2.63;;;;;;;24.93;25.14;99268.34;5036099;28;20029;-77
2021/05/03 07:42:22;;;;;;;13.23;2.80;;;;;;;24.93;25.85;99274.56;5018185;28;20108;-77
2021/05/03 07:44:47;;;;;;;13.82;2.53;;;;;;;24.71;25.89;99277.66;5035885;28;20341;-78
2021/05/03 07:47:13;;;;;;;13.02;2.25;;;;;;;24.94;26.09;99273.47;5035795;28;20030;-75
2021/05/03 07:49:39;;;;;;;12.63;3.28;;;;;;;24.83;25.79;99247.63;5017843;28;20026;-77
2021/05/03 07:52:08;;;;;;;10.57;2.78;;;;;;;24.98;25.71;99252.97;5035531;28;20025;-77
2021/05/03 07:54:34;;;;;;;6.22;1.67;;;;;;;24.93;25.93;99217.03;5035409;28;20025;-76
2021/05/03 07:57:00;;;;;;;7.03;1.83;;;;;;;25.21;26.03;99254.16;5035777;28;20329;-77
2021/05/03 07:59:25;;;;;;;10.02;2.60;;;;;;;25.02;25.88;99218.09;5017899;28;20083;-78
2021/05/03 08:01:51;;;;;;;5.80;1.92;;;;;;;25.36;26.00;99264.09;5035469;28;20352;-76
2021/05/03 08:04:17;;;;;;;5.75;2.03;;;;;;;25.40;25.79;99250.81;5035581;28;20463;-76
2021/05/03 08:06:42;;;;;;;10.07;2.00;;;;;;;25.54;26.33;99273.41;5035287;28;20033;-78
2021/05/03 08:09:08;;;;;;;11.45;2.33;;;;;;;25.57;26.29;99286.34;5035499;28;20057;-75
2021/05/03 08:11:33;;;;;;;9.52;2.13;;;;;;;25.63;26.03;99293.34;5035289;28;20021;-76
2021/05/03 08:13:59;;;;;;;6.80;2.28;;;;;;;25.50;25.79;99256.94;5035495;28;20017;-75
2021/05/03 08:16:27;;;;;;;8.07;1.88;;;;;;;25.44;25.96;99241.84;5035079;28;20052;-77
2021/05/03 08:18:52;;;;;;;7.38;2.45;;;;;;;25.56;26.39;99255.81;5017597;28;20025;-76
2021/05/03 08:21:18;;;;;;;8.63;2.78;;;;;;;25.43;26.40;99220.50;5035415;28;20017;-76
2021/05/03 08:23:43;;;;;;;9.57;2.15;;;;;;;25.86;26.41;99276.41;5035020;28;20105;-77
2021/05/03 08:26:09;;;;;;;7.22;2.25;;;;;;;25.47;26.47;99235.06;5034692;28;20025;-76
2021/05/03 08:28:35;;;;;;;7.18;2.20;;;;;;;25.36;26.40;99195.72;5017390;28;20017;-76
2021/05/03 08:31:02;;;;;;;8.32;2.15;;;;;;;25.69;26.56;99229.25;5035038;28;20087;-77
2021/05/03 08:33:28;;;;;;;8.82;2.45;;;;;;;25.95;26.34;99249.53;5034871;28;20364;-77
2021/05/03 08:35:56;;;;;;;9.82;2.17;;;;;;;26.21;26.34;99260.94;5017412;28;20036;-77
2021/05/03 08:38:22;;;;;;;6.43;2.15;;;;;;;26.25;26.05;99256.56;5035852;28;20100;-77
2021/05/03 08:40:48;;;;;;;14.13;2.67;;;;;;;26.46;26.01;99257.94;5038295;28;20131;-77
2021/05/03 08:43:14;;;;;;;14.82;3.28;;;;;;;26.26;25.92;99204.84;5035886;28;20028;-76
2021/05/03 08:45:40;;;;;;;10.57;2.10;;;;;;;26.72;25.64;99257.63;5034943;28;20419;-76
2021/05/03 08:53:18;;;;;;;13.02;2.80;;;;;;;26.65;25.29;99200.31;5034643;28;20091;-77
2021/05/03 08:55:44;;;;;;;8.48;2.72;;;;;;;27.09;24.92;99260.41;5016944;28;20391;-77
2021/05/03 08:58:11;;;;;;;8.98;2.70;;;;;;;27.17;24.74;99278.72;5017046;28;20044;-77
2021/05/03 09:00:37;;;;;;;7.35;2.35;;;;;;;27.08;24.43;99268.84;5034497;28;20032;-78
2021/05/03 09:03:10;;;;;;;9.52;2.15;;;;;;;27.18;24.13;99272.22;5033819;28;20076;-77
2021/05/03 09:05:35;;;;;;;7.18;2.15;;;;;;;26.92;24.16;99193.16;5034581;28;20030;-77
2021/05/03 09:08:03;;;;;;;9.23;2.55;;;;;;;26.86;24.16;99182.69;5034466;28;20036;-75
2021/05/03 09:10:30;;;;;;;9.00;2.35;;;;;;;27.36;24.32;99235.34;5034300;28;20359;-77
2021/05/03 09:13:06;;;;;;;11.07;2.70;;;;;;;27.81;23.69;99265.56;5034460;28;20025;-75
2021/05/03 09:15:32;;;;;;;9.98;2.58;;;;;;;27.43;23.54;99218.69;5034357;28;20462;-76
2021/05/03 09:17:59;;;;;;;10.45;2.50;;;;;;;27.70;24.02;99247.84;5034447;28;20022;-78
2021/05/03 09:20:26;;;;;;;10.30;2.53;;;;;;;27.27;23.76;99203.78;5034287;28;20052;-78
2021/05/03 09:23:13;;;;;;;6.78;2.17;;;;;;;27.66;23.28;99258.50;5016678;28;20033;-78
2021/05/03 09:25:41;;;;;;;10.18;3.17;;;;;;;27.51;23.91;99250.56;5016787;28;20465;-78
2021/05/03 09:28:08;;;;;;;11.48;2.72;;;;;;;27.43;23.11;99238.47;5034273;28;20041;-75
2021/05/03 09:30:35;;;;;;;5.95;1.92;;;;;;;27.30;23.22;99230.28;5034137;28;20443;-77
2021/05/03 09:33:18;;;;;;;8.80;2.17;;;;;;;27.58;23.18;99267.28;5034254;28;20079;-76
2021/05/03 09:35:55;;;;;;;7.78;1.92;;;;;;;27.73;23.21;99261.63;5034209;28;20032;-77
2021/05/03 09:38:32;;;;;;;8.75;2.33;;;;;;;27.87;23.53;99261.66;5016814;28;20025;-77
2021/05/03 09:41:26;;;;;;;9.68;2.38;;;;;;;28.18;22.73;99254.56;5016643;28;20021;-76
2021/05/03 09:43:58;;;;;;;11.15;2.90;;;;;;;28.40;22.66;99272.91;5034175;28;20072;-77
2021/05/03 09:46:30;;;;;;;10.35;2.30;;;;;;;28.09;22.74;99244.69;5034144;28;20059;-77
2021/05/03 09:48:58;;;;;;;8.70;2.53;;;;;;;27.87;22.67;99190.31;5016557;28;20041;-77
2021/05/03 09:51:29;;;;;;;8.88;2.72;;;;;;;28.48;22.83;99269.50;5016438;28;20037;-77
2021/05/03 09:54:10;;;;;;;11.82;2.55;;;;;;;28.24;22.30;99273.50;5034162;28;20022;-77
2021/05/03 09:56:50;;;;;;;11.15;2.17;;;;;;;28.45;21.86;99272.81;5034003;28;20029;-77
2021/05/03 09:59:30;;;;;;;7.22;2.15;;;;;;;28.46;21.83;99273.63;5034138;28;20088;-75
2021/05/03 10:02:00;;;;;;;9.77;2.60;;;;;;;28.60;21.69;99273.63;5016642;28;20079;-78
2021/05/03 10:04:26;;;;;;;7.50;2.03;;;;;;;28.38;21.68;99231.69;5034117;28;20029;-74
2021/05/03 10:06:52;;;;;;;9.60;2.20;;;;;;;28.73;21.65;99278.22;5033879;28;20399;-75
2021/05/03 10:09:17;;;;;;;6.38;2.50;;;;;;;28.49;21.52;99264.88;5016327;28;20021;-77
2021/05/03 10:11:43;;;;;;;8.88;2.25;;;;;;;28.68;21.51;99295.44;5033835;28;20104;-76
2021/05/03 10:14:08;;;;;;;9.18;2.35;;;;;;;28.35;22.14;99245.88;5036234;28;20087;-76
2021/05/03 10:16:35;;;;;;;9.60;2.80;;;;;;;28.34;22.53;99252.41;5029933;28;20029;-77
2021/05/03 10:19:01;;;;;;;11.50;2.58;;;;;;;28.81;22.35;99301.97;5025746;28;20030;-77
2021/05/03 10:21:26;;;;;;;6.97;2.38;;;;;;;28.56;22.48;99269.88;5037688;28;20332;-76
2021/05/03 10:23:53;;;;;;;11.38;2.90;;;;;;;28.76;22.71;99286.56;5037391;28;20029;-76
2021/05/03 10:26:19;;;;;;;12.20;3.10;;;;;;;28.45;22.76;99253.81;5019561;28;20127;-78
2021/05/03 10:28:56;;;;;;;8.68;2.58;;;;;;;28.60;23.18;99301.59;5037219;28;20034;-77
2021/05/03 10:31:23;;;;;;;8.23;2.53;;;;;;;28.36;23.48;99282.78;5037386;28;20108;-78
2021/05/03 10:33:50;;;;;;;13.00;3.60;;;;;;;28.34;23.45;99244.25;5019601;28;20448;-77
2021/05/03 10:36:35;;;;;;;7.70;3.05;;;;;;;28.85;23.64;99304.91;5019450;28;20090;-79
2021/05/03 10:39:22;;;;;;;10.43;2.80;;;;;;;28.97;23.68;99308.72;5037078;28;20028;-78
2021/05/03 10:42:11;;;;;;;9.32;2.95;;;;;;;28.64;23.52;99266.47;5019439;28;20086;-77
2021/05/03 10:44:39;;;;;;;10.38;3.03;;;;;;;28.84;23.69;99303.31;5036931;28;20083;-76
2021/05/03 10:47:28;;;;;;;11.57;3.10;;;;;;;28.79;23.60;99310.41;5019285;28;20416;-77
2021/05/03 10:49:53;;;;;;;9.32;3.10;;;;;;;28.08;23.70;99221.38;5036954;28;20025;-77
2021/05/03 10:52:32;;;;;;;14.73;3.22;;;;;;;28.85;23.70;99305.72;5036854;28;20344;-76
2021/05/03 10:54:58;;;;;;;8.75;3.40;;;;;;;28.84;23.98;99287.81;5036860;28;20039;-76
2021/05/03 10:57:23;;;;;;;11.98;3.33;;;;;;;29.15;23.82;99290.69;5036631;28;20104;-76
2021/05/03 10:59:53;;;;;;;14.00;3.50;;;;;;;29.33;23.58;99287.00;5036472;28;20382;-76
2021/05/03 11:02:20;;;;;;;12.13;3.70;;;;;;;29.35;24.09;99290.19;5036566;28;20021;-78
2021/05/03 11:05:26;;;;;;;7.57;3.30;;;;;;;29.51;23.59;99284.44;5036325;28;20040;-77
2021/05/03 11:08:04;;;;;;;8.43;3.35;;;;;;;29.62;23.74;99283.88;5036146;28;20031;-77
2021/05/03 11:11:04;;;;;;;7.20;3.28;;;;;;;29.75;23.33;99284.13;5036407;28;20044;-77
2021/05/03 11:13:36;;;;;;;12.02;3.53;;;;;;;29.97;23.34;99279.47;5018680;28;20317;-77
2021/05/03 11:16:31;;;;;;;9.73;3.50;;;;;;;30.15;22.73;99288.53;5036381;28;20502;-77
2021/05/03 11:19:02;;;;;;;8.95;3.30;;;;;;;30.04;22.49;99284.50;5036412;28;20032;-76
2021/05/03 11:21:44;;;;;;;;;;;;;;;30.16;23.13;99284.72;5019090;28;20080;-76
2021/05/03 11:24:22;;;;;;;10.15;3.15;;;;;;;30.33;22.32;99230.31;5036355;28;20008;-77
2021/05/03 11:26:54;;;;;;;14.82;3.60;;;;;;;30.93;22.30;99258.84;5035323;28;20057;-76
2021/05/03 11:29:23;;;;;;;8.73;3.33;;;;;;;31.08;21.86;99261.09;5018647;28;20033;-75
2021/05/03 11:31:48;;;;;;;8.93;2.67;;;;;;;31.05;21.38;99258.22;5035942;28;20022;-77
2021/05/03 11:34:32;;;;;;;7.20;2.47;;;;;;;30.63;21.67;99233.31;5035969;28;20036;-78
2021/05/03 11:37:06;;;;;;;7.43;3.03;;;;;;;30.71;22.10;99272.59;5036028;28;20022;-77
2021/05/03 11:39:54;;;;;;;8.60;2.63;;;;;;;30.61;21.83;99273.69;5035766;28;20024;-77
2021/05/03 11:42:54;;;;;;;7.93;2.38;;;;;;;30.57;22.22;99269.97;5036026;28;20056;-75
2021/05/03 11:45:24;;;;;;;9.38;2.40;;;;;;;30.89;21.82;99257.88;5035330;28;20033;-78
2021/05/03 11:47:53;;;;;;;8.82;2.05;;;;;;;31.33;21.21;99273.19;5035623;28;20026;-75
2021/05/03 11:50:28;;;;;;;9.48;2.20;;;;;;;31.47;20.32;99264.81;5035844;28;20032;-78
2021/05/03 11:52:54;;;;;;;7.28;2.08;;;;;;;31.57;20.62;99245.38;5028891;28;20021;-77